createdAt,value
2019-03-24T00:02:11.616Z,31.30
2019-03-24T00:04:40.102Z,34.73
2019-03-24T00:07:08.580Z,31.03
2019-03-24T00:09:37.021Z,31.03
2019-03-24T00:12:05.804Z,31.90
2019-03-24T00:14:34.258Z,32.03
2019-03-24T00:17:02.763Z,32.17
2019-03-24T00:19:31.240Z,33.57
2019-03-24T00:21:59.793Z,31.00
2019-03-24T00:24:28.365Z,31.97
2019-03-24T00:26:56.869Z,35.27
2019-03-24T00:29:25.422Z,31.47
2019-03-24T00:31:53.968Z,32.23
2019-03-24T00:34:22.462Z,30.17
2019-03-24T00:36:51.005Z,30.60
2019-03-24T00:39:19.597Z,31.77
2019-03-24T00:41:48.072Z,31.20
2019-03-24T00:44:16.584Z,30.23
2019-03-24T00:46:45.119Z,30.03
2019-03-24T00:49:13.591Z,30.37
2019-03-24T00:51:42.077Z,29.33
2019-03-24T00:54:10.505Z,33.13
2019-03-24T00:56:39.027Z,29.23
2019-03-24T00:59:07.621Z,33.00
2019-03-24T01:01:36.090Z,33.97
2019-03-24T01:04:04.682Z,32.63
2019-03-24T01:06:33.128Z,34.83
2019-03-24T01:09:01.705Z,31.43
2019-03-24T01:11:30.138Z,32.07
2019-03-24T01:13:58.626Z,33.27
2019-03-24T01:16:27.091Z,32.77
2019-03-24T01:18:55.665Z,31.10
2019-03-24T01:21:24.135Z,32.77
2019-03-24T01:23:52.661Z,31.23
2019-03-24T01:26:21.119Z,33.07
2019-03-24T01:28:49.678Z,31.70
2019-03-24T01:31:18.129Z,31.17
2019-03-24T01:33:46.612Z,31.23
2019-03-24T01:36:15.034Z,32.33
2019-03-24T01:38:43.612Z,33.00
2019-03-24T01:41:12.087Z,32.70
2019-03-24T01:43:40.549Z,33.10
2019-03-24T01:46:09.026Z,31.17
2019-03-24T01:48:37.498Z,31.53
2019-03-24T01:51:06.055Z,29.17
2019-03-24T01:53:34.615Z,33.27
2019-03-24T01:56:03.187Z,33.70
2019-03-24T01:58:31.658Z,33.57
2019-03-24T02:01:00.116Z,32.07
2019-03-24T02:03:28.693Z,30.73
2019-03-24T02:05:57.214Z,32.77
2019-03-24T02:08:25.930Z,29.57
2019-03-24T02:10:54.368Z,32.53
2019-03-24T02:13:22.999Z,30.53
2019-03-24T02:15:51.438Z,31.87
2019-03-24T02:18:19.903Z,31.33
2019-03-24T02:20:48.391Z,32.57
2019-03-24T02:23:16.938Z,34.67
2019-03-24T02:25:45.390Z,33.23
2019-03-24T02:28:13.961Z,33.63
2019-03-24T02:30:42.500Z,33.67
2019-03-24T02:33:10.957Z,32.20
2019-03-24T02:35:39.422Z,31.47
2019-03-24T02:38:07.879Z,31.70
2019-03-24T02:40:36.350Z,30.77
2019-03-24T02:43:04.804Z,30.10
2019-03-24T02:45:33.333Z,30.90
2019-03-24T02:48:21.163Z,31.67
2019-03-24T02:51:08.944Z,32.70
2019-03-24T02:53:56.713Z,31.67
2019-03-24T02:56:44.496Z,32.37
2019-03-24T02:59:32.273Z,31.07
2019-03-24T03:02:20.117Z,33.33
2019-03-24T03:05:07.958Z,30.27
2019-03-24T03:07:55.733Z,31.53
2019-03-24T03:10:43.532Z,32.33
2019-03-24T03:13:31.292Z,29.90
2019-03-24T03:16:11.936Z,31.37
2019-03-24T03:18:52.641Z,33.37
2019-03-24T03:21:21.083Z,31.77
2019-03-24T03:24:08.850Z,32.43
2019-03-24T03:26:56.635Z,31.67
2019-03-24T03:29:44.390Z,33.33
2019-03-24T03:32:32.197Z,33.87
2019-03-24T03:35:20.005Z,32.57
2019-03-24T03:38:07.781Z,31.97
2019-03-24T03:40:36.235Z,32.30
2019-03-24T03:43:24.002Z,33.40
2019-03-24T03:46:11.783Z,32.13
2019-03-24T03:48:59.547Z,35.43
2019-03-24T03:51:47.568Z,32.27
2019-03-24T03:54:35.361Z,30.03
2019-03-24T04:00:48.257Z,30.40
2019-03-24T04:03:36.033Z,31.00
2019-03-24T04:06:04.471Z,29.37
2019-03-24T04:08:52.240Z,30.87
2019-03-24T04:11:40.024Z,29.57
2019-03-24T04:14:27.788Z,30.30
2019-03-24T04:17:15.583Z,31.77
2019-03-24T04:20:24.073Z,29.30
2019-03-24T04:23:11.880Z,28.00
2019-03-24T04:25:59.643Z,30.23
2019-03-24T04:28:47.748Z,29.23
2019-03-24T04:31:35.809Z,28.47
2019-03-24T04:34:23.581Z,27.73
2019-03-24T04:37:11.361Z,30.80
2019-03-24T04:39:59.122Z,29.23
2019-03-24T04:42:47.147Z,28.63
2019-03-24T04:45:34.926Z,29.33
2019-03-24T04:48:22.709Z,28.93
2019-03-24T04:51:10.471Z,29.27
2019-03-24T04:53:58.259Z,29.00
2019-03-24T04:56:46.031Z,29.53
2019-03-24T04:59:33.807Z,29.03
2019-03-24T05:02:21.619Z,26.17
2019-03-24T05:05:09.511Z,28.77
2019-03-24T05:07:57.468Z,27.37
2019-03-24T05:10:45.251Z,30.90
2019-03-24T05:13:33.038Z,29.20
2019-03-24T05:16:13.912Z,30.47
2019-03-24T05:18:54.892Z,28.93
2019-03-24T05:21:35.706Z,29.63
2019-03-24T05:24:16.634Z,29.37
2019-03-24T05:26:57.546Z,27.27
2019-03-24T05:29:37.962Z,28.80
2019-03-24T05:32:18.527Z,28.87
2019-03-24T05:34:58.969Z,28.00
2019-03-24T05:37:39.748Z,31.10
2019-03-24T05:40:20.615Z,27.97
2019-03-24T05:43:01.638Z,27.17
2019-03-24T05:45:42.596Z,28.93
2019-03-24T05:48:23.393Z,28.97
2019-03-24T05:50:51.963Z,30.97
2019-03-24T05:53:20.489Z,28.20
2019-03-24T05:55:49.184Z,27.20
2019-03-24T05:58:17.702Z,29.80
2019-03-24T06:00:46.195Z,30.00
2019-03-24T06:03:14.675Z,29.33
2019-03-24T06:05:43.167Z,29.27
2019-03-24T06:08:11.726Z,30.70
2019-03-24T06:10:40.185Z,29.67
2019-03-24T06:13:08.730Z,27.93
2019-03-24T06:15:37.236Z,28.80
2019-03-24T06:18:05.746Z,27.43
2019-03-24T06:20:34.277Z,31.67
2019-03-24T06:23:02.870Z,30.00
2019-03-24T06:25:34.736Z,28.70
2019-03-24T06:28:01.860Z,27.00
2019-03-24T06:30:30.400Z,29.80
2019-03-24T06:32:58.908Z,29.27
2019-03-24T06:35:27.527Z,29.73
2019-03-24T06:37:56.105Z,31.27
2019-03-24T06:40:31.372Z,33.07
2019-03-24T06:43:00.002Z,34.27
2019-03-24T06:45:29.067Z,36.30
2019-03-24T06:47:58.401Z,36.67
2019-03-24T06:50:26.907Z,35.10
2019-03-24T06:52:57.442Z,36.47
2019-03-24T06:55:25.929Z,36.40
2019-03-24T06:57:54.435Z,34.10
2019-03-24T07:00:22.956Z,33.40
2019-03-24T07:02:51.529Z,34.90
2019-03-24T07:05:20.094Z,37.27
2019-03-24T07:07:48.686Z,36.73
2019-03-24T07:10:17.251Z,35.17
2019-03-24T07:12:45.805Z,35.13
2019-03-24T07:15:14.553Z,35.43
2019-03-24T07:17:42.994Z,37.37
2019-03-24T07:20:11.859Z,37.13
2019-03-24T07:22:40.391Z,36.23
2019-03-24T07:25:09.855Z,39.40
2019-03-24T07:27:39.313Z,37.90
2019-03-24T07:30:09.256Z,40.43
2019-03-24T07:32:37.707Z,37.13
2019-03-24T07:35:07.009Z,39.83
2019-03-24T07:37:35.601Z,38.33
2019-03-24T07:40:23.462Z,40.17
2019-03-24T07:43:11.233Z,37.90
2019-03-24T07:45:59.223Z,40.00
2019-03-24T07:48:27.821Z,37.20
2019-03-24T07:50:56.683Z,41.80
2019-03-24T07:53:25.580Z,39.40
2019-03-24T07:55:54.360Z,42.13
2019-03-24T07:58:23.388Z,37.97
2019-03-24T08:00:52.149Z,37.53
2019-03-24T08:03:20.764Z,42.63
2019-03-24T08:05:49.505Z,37.97
2019-03-24T08:08:18.280Z,38.20
2019-03-24T08:10:47.084Z,40.43
2019-03-24T08:13:16.728Z,38.67
2019-03-24T08:15:45.293Z,42.50
2019-03-24T08:18:14.010Z,39.70
2019-03-24T08:20:42.654Z,42.27
2019-03-24T08:23:11.582Z,40.70
2019-03-24T08:25:40.148Z,41.50
2019-03-24T08:28:08.794Z,41.37
2019-03-24T08:30:37.676Z,39.90
2019-03-24T08:33:06.613Z,41.30
2019-03-24T08:35:36.219Z,38.80
2019-03-24T08:38:05.497Z,39.67
2019-03-24T08:40:34.151Z,45.80
2019-03-24T08:43:03.002Z,38.83
2019-03-24T08:45:32.413Z,40.37
2019-03-24T08:48:01.017Z,39.13
2019-03-24T08:50:29.771Z,36.77
2019-03-24T08:52:58.547Z,37.93
2019-03-24T08:55:27.168Z,37.90
2019-03-24T08:57:55.841Z,37.00
2019-03-24T09:00:30.492Z,36.70
2019-03-24T09:02:54.897Z,36.00
2019-03-24T09:05:23.606Z,37.03
2019-03-24T09:07:52.321Z,34.87
2019-03-24T09:10:21.044Z,39.17
2019-03-24T09:12:49.805Z,36.83
2019-03-24T09:15:18.469Z,38.10
2019-03-24T09:17:47.171Z,38.10
2019-03-24T09:20:16.066Z,37.80
2019-03-24T09:22:44.872Z,37.03
2019-03-24T09:25:13.877Z,34.80
2019-03-24T09:27:42.620Z,34.53
2019-03-24T09:30:14.342Z,35.17
2019-03-24T09:32:42.985Z,37.80
2019-03-24T09:35:11.628Z,37.73
2019-03-24T09:37:40.353Z,38.50
2019-03-24T09:40:12.018Z,34.70
2019-03-24T09:43:00.795Z,37.63
2019-03-24T09:45:48.560Z,35.33
2019-03-24T09:48:36.338Z,37.70
2019-03-24T09:51:24.094Z,37.33
2019-03-24T09:54:11.896Z,37.37
2019-03-24T09:56:59.673Z,38.07
2019-03-24T09:59:47.439Z,37.83
2019-03-24T10:02:15.859Z,38.87
2019-03-24T10:05:03.835Z,38.03
2019-03-24T10:07:51.599Z,37.57
2019-03-24T10:10:39.386Z,40.70
2019-03-24T10:13:27.174Z,42.03
2019-03-24T10:16:08.312Z,36.53
2019-03-24T10:18:49.398Z,38.17
2019-03-24T10:21:30.124Z,37.93
2019-03-24T10:24:10.923Z,36.23
2019-03-24T10:26:51.713Z,34.70
2019-03-24T10:29:32.772Z,36.33
2019-03-24T10:32:13.550Z,36.50
2019-03-24T10:34:54.635Z,36.70
2019-03-24T10:37:35.730Z,36.97
2019-03-24T10:40:16.575Z,36.33
2019-03-24T10:42:57.136Z,38.30
2019-03-24T10:45:37.816Z,36.97
2019-03-24T10:48:18.704Z,34.40
2019-03-24T10:50:59.544Z,37.80
2019-03-24T10:53:40.035Z,37.70
2019-03-24T10:56:21.126Z,37.80
2019-03-24T10:59:01.909Z,36.27
2019-03-24T11:01:42.921Z,38.57
2019-03-24T11:04:23.805Z,39.27
2019-03-24T11:07:04.770Z,37.07
2019-03-24T11:09:45.836Z,37.53
2019-03-24T11:12:26.480Z,38.70
2019-03-24T11:15:07.295Z,40.77
2019-03-24T11:17:48.235Z,39.20
2019-03-24T11:20:29.031Z,40.50
2019-03-24T11:23:10.001Z,38.30
2019-03-24T11:25:50.678Z,39.93
2019-03-24T11:28:31.330Z,38.40
2019-03-24T11:31:11.598Z,40.93
2019-03-24T11:33:52.632Z,37.53
2019-03-24T11:36:21.082Z,38.57
2019-03-24T11:39:08.922Z,42.90
2019-03-24T11:41:56.729Z,38.30
2019-03-24T11:44:44.499Z,41.30
2019-03-24T11:47:32.274Z,40.47
2019-03-24T11:50:20.087Z,39.37
2019-03-24T11:53:07.852Z,40.17
2019-03-24T11:55:55.656Z,40.17
2019-03-24T11:58:43.455Z,39.37
2019-03-24T12:01:12.057Z,39.40
2019-03-24T12:03:59.844Z,41.60
2019-03-24T12:06:47.639Z,38.80
2019-03-24T12:09:35.402Z,37.63
2019-03-24T12:12:03.847Z,40.03
2019-03-24T12:14:44.092Z,38.37
2019-03-24T12:17:25.159Z,40.17
2019-03-24T12:20:06.064Z,40.20
2019-03-24T12:22:47.177Z,39.40
2019-03-24T12:25:28.096Z,39.57
2019-03-24T12:28:08.901Z,40.40
2019-03-24T12:30:49.827Z,42.03
2019-03-24T12:33:30.571Z,38.60
2019-03-24T12:36:11.604Z,40.47
2019-03-24T12:38:52.642Z,39.43
2019-03-24T12:41:33.562Z,39.43
2019-03-24T12:44:14.299Z,38.03
2019-03-24T12:46:42.794Z,39.80
2019-03-24T12:49:30.618Z,39.03
2019-03-24T12:52:18.455Z,38.73
2019-03-24T12:55:07.001Z,39.10
2019-03-24T12:57:54.790Z,39.97
2019-03-24T13:00:42.551Z,37.97
2019-03-24T13:03:30.339Z,39.27
2019-03-24T13:06:18.112Z,38.13
2019-03-24T13:09:06.592Z,37.27
2019-03-24T13:11:54.361Z,37.63
2019-03-24T13:14:33.105Z,39.90
2019-03-24T13:17:20.906Z,41.07
2019-03-24T13:20:19.557Z,39.83
2019-03-24T13:22:58.449Z,40.73
2019-03-24T13:25:46.273Z,38.20
2019-03-24T13:28:34.071Z,40.03
2019-03-24T13:31:21.845Z,40.07
2019-03-24T13:34:09.628Z,36.70
2019-03-24T13:36:57.408Z,38.50
2019-03-24T13:39:45.206Z,37.43
2019-03-24T13:42:33.024Z,37.43
2019-03-24T13:45:01.496Z,36.57
2019-03-24T13:47:49.286Z,36.47
2019-03-24T13:50:37.065Z,37.23
2019-03-24T13:53:05.537Z,36.80
2019-03-24T13:55:53.302Z,36.30
2019-03-24T13:58:41.102Z,37.63
2019-03-24T14:01:28.963Z,37.87
2019-03-24T14:04:16.774Z,37.10
2019-03-24T14:07:04.627Z,37.10
2019-03-24T14:09:52.475Z,36.90
2019-03-24T14:12:40.340Z,38.50
2019-03-24T14:15:20.701Z,36.90
2019-03-24T14:18:01.506Z,38.43
2019-03-24T14:20:43.644Z,36.00
2019-03-24T14:23:24.949Z,34.27
2019-03-24T14:26:05.767Z,34.13
2019-03-24T14:28:46.459Z,34.87
2019-03-24T14:31:27.251Z,35.13
2019-03-24T14:34:07.886Z,35.40
2019-03-24T14:36:49.020Z,35.30
2019-03-24T14:39:29.715Z,35.40
2019-03-24T14:42:10.912Z,34.27
2019-03-24T14:44:39.552Z,32.77
2019-03-24T14:47:08.159Z,31.97
2019-03-24T14:49:36.866Z,31.07
2019-03-24T14:52:05.474Z,31.40
2019-03-24T14:54:33.989Z,33.03
2019-03-24T14:57:02.637Z,34.90
2019-03-24T14:59:31.280Z,32.10
2019-03-24T15:02:00.010Z,31.80
2019-03-24T15:04:28.549Z,32.00
2019-03-24T15:06:57.184Z,32.70
2019-03-24T15:09:25.854Z,32.20
2019-03-24T15:11:54.548Z,31.43
2019-03-24T15:14:23.234Z,32.47
2019-03-24T15:16:52.404Z,33.40
2019-03-24T15:19:21.044Z,33.90
2019-03-24T15:21:49.744Z,33.47
2019-03-24T15:24:18.185Z,33.80
2019-03-24T15:26:46.622Z,34.80
2019-03-24T15:29:15.156Z,33.97
2019-03-24T15:31:43.589Z,29.57
2019-03-24T15:34:12.265Z,32.67
2019-03-24T15:36:40.901Z,33.30
2019-03-24T15:39:09.843Z,32.70
2019-03-24T15:41:38.420Z,33.43
2019-03-24T15:44:07.058Z,33.13
2019-03-24T15:46:41.767Z,33.40
2019-03-24T15:49:10.389Z,31.20
2019-03-24T15:51:38.999Z,31.17
2019-03-24T15:54:07.785Z,31.70
2019-03-24T15:56:36.279Z,31.00
2019-03-24T15:59:04.717Z,29.97
2019-03-24T16:01:33.409Z,29.50
2019-03-24T16:04:02.020Z,30.70
2019-03-24T16:06:30.826Z,30.73
2019-03-24T16:08:59.367Z,30.30
2019-03-24T16:11:27.893Z,31.10
2019-03-24T16:13:56.356Z,29.27
2019-03-24T16:16:25.016Z,28.83
2019-03-24T16:18:53.465Z,29.63
2019-03-24T16:21:27.873Z,29.60
2019-03-24T16:23:52.289Z,45.50
2019-03-24T16:26:20.971Z,132.87
2019-03-24T16:28:49.622Z,39.30
2019-03-24T16:31:18.273Z,41.73
2019-03-24T16:33:46.782Z,33.20
2019-03-24T16:36:15.239Z,28.93
2019-03-24T16:38:48.833Z,32.27
2019-03-24T16:41:15.187Z,30.20
2019-03-24T16:43:43.933Z,30.13
2019-03-24T16:46:12.387Z,28.30
2019-03-24T16:48:40.943Z,28.30
2019-03-24T16:51:09.642Z,29.43
2019-03-24T16:53:38.199Z,31.07
2019-03-24T16:56:06.785Z,27.27
2019-03-24T16:58:35.420Z,27.20
2019-03-24T17:01:04.280Z,24.60
2019-03-24T17:03:32.884Z,27.33
2019-03-24T17:06:01.356Z,25.00
2019-03-24T17:08:30.031Z,26.67
2019-03-24T17:10:58.641Z,21.23
2019-03-24T17:13:27.366Z,22.80
2019-03-24T17:15:55.983Z,25.60
2019-03-24T17:18:24.579Z,25.10
2019-03-24T17:20:53.068Z,24.00
2019-03-24T17:23:21.532Z,22.17
2019-03-24T17:25:49.962Z,22.23
2019-03-24T17:28:18.416Z,18.80
2019-03-24T17:30:46.850Z,16.37
2019-03-24T17:33:16.254Z,13.60
2019-03-24T17:35:45.712Z,15.30
2019-03-24T17:38:14.150Z,13.80
2019-03-24T17:40:42.582Z,14.60
2019-03-24T17:43:11.022Z,14.00
2019-03-24T17:45:39.450Z,14.50
2019-03-24T17:48:07.907Z,13.27
2019-03-24T17:50:36.327Z,12.87
2019-03-24T17:53:06.717Z,12.40
2019-03-24T17:55:34.940Z,12.73
2019-03-24T17:58:03.455Z,13.37
2019-03-24T18:00:44.384Z,13.70
2019-03-24T18:03:12.819Z,13.93
2019-03-24T18:05:41.321Z,12.50
2019-03-24T18:08:09.839Z,11.07
2019-03-24T18:10:38.528Z,11.33
2019-03-24T18:13:07.084Z,10.67
2019-03-24T18:15:35.564Z,10.40
2019-03-24T18:18:04.052Z,8.63
2019-03-24T18:20:33.927Z,8.63
2019-03-24T18:23:02.445Z,8.60
2019-03-24T18:25:30.882Z,8.80
2019-03-24T18:27:59.311Z,7.80
2019-03-24T18:30:27.982Z,8.80
2019-03-24T18:32:56.411Z,8.20
2019-03-24T18:35:24.867Z,9.00
2019-03-24T18:37:54.295Z,10.23
2019-03-24T18:40:22.770Z,12.40
2019-03-24T18:42:51.229Z,14.20
2019-03-24T18:45:20.067Z,11.43
2019-03-24T18:47:48.519Z,11.57
2019-03-24T18:50:17.202Z,12.10
2019-03-24T18:52:45.787Z,9.10
2019-03-24T18:55:14.574Z,10.03
2019-03-24T18:57:43.007Z,9.17
2019-03-24T19:00:13.657Z,9.10
2019-03-24T19:02:42.307Z,7.90
2019-03-24T19:05:11.191Z,8.70
2019-03-24T19:07:39.631Z,8.30
2019-03-24T19:10:10.342Z,8.20
2019-03-24T19:12:38.861Z,7.83
2019-03-24T19:15:08.479Z,8.20
2019-03-24T19:17:37.066Z,8.60
2019-03-24T19:20:06.372Z,8.20
2019-03-24T19:22:34.923Z,7.60
2019-03-24T19:25:08.194Z,8.07
2019-03-24T19:27:36.788Z,9.37
2019-03-24T19:30:07.776Z,11.50
2019-03-24T19:32:36.421Z,9.20
2019-03-24T19:35:09.947Z,10.33
2019-03-24T19:37:38.881Z,10.87
2019-03-24T19:40:19.252Z,8.57
2019-03-24T19:42:47.790Z,10.77
2019-03-24T19:45:16.265Z,9.03
2019-03-24T19:47:44.722Z,11.20
2019-03-24T19:50:13.339Z,9.27
2019-03-24T19:52:44.912Z,8.40
2019-03-24T19:55:12.056Z,7.80
2019-03-24T19:57:40.604Z,17.00
2019-03-24T20:00:09.617Z,13.90
2019-03-24T20:02:38.186Z,16.20
2019-03-24T20:05:06.792Z,9.00
2019-03-24T20:07:35.407Z,7.77
2019-03-24T20:10:05.694Z,10.40
2019-03-24T20:12:34.212Z,9.00
2019-03-24T20:15:02.654Z,8.90
2019-03-24T20:17:31.121Z,8.97
2019-03-24T20:19:59.695Z,8.27
2019-03-24T20:22:28.229Z,7.80
2019-03-24T20:24:56.659Z,8.63
2019-03-24T20:27:26.007Z,8.53
2019-03-24T20:29:54.576Z,8.27
2019-03-24T20:32:23.046Z,7.47
2019-03-24T20:34:51.482Z,8.33
2019-03-24T20:37:20.015Z,8.43
2019-03-24T20:39:48.551Z,8.73
2019-03-24T20:42:17.069Z,7.97
2019-03-24T20:44:45.531Z,8.60
2019-03-24T20:47:14.090Z,9.70
2019-03-24T20:49:42.561Z,8.20
2019-03-24T20:52:11.035Z,8.73
2019-03-24T20:54:39.503Z,8.73
2019-03-24T20:57:08.080Z,11.17
2019-03-24T20:59:36.518Z,9.70
2019-03-24T21:02:05.112Z,10.43
2019-03-24T21:04:33.671Z,9.90
2019-03-24T21:07:03.286Z,9.20
2019-03-24T21:09:31.739Z,11.20
2019-03-24T21:12:00.298Z,12.80
2019-03-24T21:14:28.734Z,11.07
2019-03-24T21:16:57.230Z,12.40
2019-03-24T21:19:25.759Z,10.93
2019-03-24T21:21:54.272Z,11.10
2019-03-24T21:24:22.751Z,10.47
2019-03-24T21:26:51.280Z,13.60
2019-03-24T21:29:19.752Z,11.67
2019-03-24T21:31:48.362Z,12.03
2019-03-24T21:34:17.008Z,11.53
2019-03-24T21:36:45.524Z,11.00
2019-03-24T21:39:14.004Z,9.50
2019-03-24T21:41:42.671Z,10.10
2019-03-24T21:44:11.184Z,10.70
2019-03-24T21:46:39.655Z,11.10
2019-03-24T21:49:08.258Z,10.90
2019-03-24T21:51:36.828Z,11.63
2019-03-24T21:54:05.498Z,10.63
2019-03-24T21:56:33.978Z,11.63
2019-03-24T21:59:02.562Z,12.53
2019-03-24T22:01:31.131Z,12.30
2019-03-24T22:03:59.641Z,12.60
2019-03-24T22:06:28.172Z,11.87
2019-03-24T22:08:56.860Z,13.53
2019-03-24T22:11:25.297Z,14.70
2019-03-24T22:13:54.683Z,12.53
2019-03-24T22:16:23.150Z,15.10
2019-03-24T22:18:51.607Z,14.43
2019-03-24T22:21:20.044Z,12.63
2019-03-24T22:23:52.500Z,15.40
2019-03-24T22:26:18.822Z,15.90
2019-03-24T22:28:47.358Z,16.37
2019-03-24T22:31:15.803Z,16.37
2019-03-24T22:33:44.310Z,17.80
2019-03-24T22:36:12.785Z,16.90
2019-03-24T22:38:41.289Z,18.57
2019-03-24T22:41:09.787Z,20.37
2019-03-24T22:43:38.236Z,18.87
2019-03-24T22:46:06.770Z,19.73
2019-03-24T22:48:35.281Z,19.57
2019-03-24T22:51:03.812Z,19.10
2019-03-24T22:53:32.278Z,15.00
2019-03-24T22:56:00.766Z,15.30
2019-03-24T22:58:29.227Z,13.97
2019-03-24T23:00:57.894Z,12.73
2019-03-24T23:03:26.566Z,12.37
2019-03-24T23:05:55.173Z,13.87
2019-03-24T23:08:23.966Z,13.10
2019-03-24T23:10:52.414Z,14.70
2019-03-24T23:13:20.880Z,13.00
2019-03-24T23:15:49.367Z,12.50
2019-03-24T23:18:17.879Z,11.97
2019-03-24T23:20:46.363Z,12.63
2019-03-24T23:23:14.825Z,11.50
2019-03-24T23:25:43.276Z,11.33
2019-03-24T23:28:11.817Z,12.77
2019-03-24T23:30:40.351Z,12.03
2019-03-24T23:33:08.924Z,12.30
2019-03-24T23:35:37.402Z,12.20
2019-03-24T23:38:05.896Z,12.67
2019-03-24T23:40:34.318Z,12.93
2019-03-24T23:43:02.783Z,12.67
2019-03-24T23:45:31.241Z,11.33
2019-03-24T23:47:59.843Z,9.73
2019-03-24T23:50:28.300Z,10.20
2019-03-24T23:52:56.732Z,8.80
2019-03-24T23:55:25.175Z,10.23
2019-03-24T23:57:53.671Z,9.10
